Time;durP1;ratioP1;P1;durP2;ratioP2;P2;SDS_P1;SDS_P2;PMS_P1;PMS_P2;Temp;Humidity;BMP_temperature;BMP_pressure;BME280_temperature;BME280_humidity;BME280_pressure;Samples;Min_cycle;Max_cycle;Signal;HPM_P1;HPM_P2
2023/06/24 00:01:04;;;;;;;0.40;0.40;;;;;;;15.87;96.98;98569.63;4841387;29;20102;-81
2023/06/24 00:03:31;;;;;;;0.30;0.30;;;;;;;15.90;96.88;98577.25;4841702;29;20089;-82
2023/06/24 00:06:03;;;;;;;0.40;0.40;;;;;;;15.89;96.81;98580.25;4841339;29;20084;-81
2023/06/24 00:08:36;;;;;;;0.40;0.40;;;;;;;15.77;96.90;98573.31;4841514;29;20406;-81
2023/06/24 00:11:03;;;;;;;0.40;0.40;;;;;;;15.73;97.17;98569.53;4841306;29;20106;-81
2023/06/24 00:13:30;;;;;;;0.43;0.43;;;;;;;15.77;97.06;98567.88;4841499;29;20076;-81
2023/06/24 00:15:58;;;;;;;0.40;0.40;;;;;;;15.58;97.24;98558.78;4841003;29;20050;-81
2023/06/24 00:18:28;;;;;;;0.40;0.40;;;;;;;15.54;97.80;98563.16;4841216;29;20079;-81
2023/06/24 00:20:56;;;;;;;0.40;0.40;;;;;;;15.49;98.12;98576.81;4840717;29;20478;-81
2023/06/24 00:23:24;;;;;;;0.30;0.30;;;;;;;15.31;98.83;98579.16;4841008;29;20118;-81
2023/06/24 00:25:55;;;;;;;0.40;0.40;;;;;;;15.21;99.77;98579.25;4841293;29;20259;-81
2023/06/24 00:28:23;;;;;;;0.40;0.40;;;;;;;15.12;100.00;98581.78;4841161;29;20054;-81
2023/06/24 00:30:50;;;;;;;0.40;0.40;;;;;;;15.06;100.00;98574.75;4840813;29;20049;-81
2023/06/24 00:33:19;;;;;;;0.40;0.40;;;;;;;15.01;100.00;98566.63;4840923;29;20064;-80
2023/06/24 00:35:46;;;;;;;0.40;0.40;;;;;;;14.92;100.00;98557.47;4838569;29;20073;-80
2023/06/24 00:38:14;;;;;;;0.40;0.40;;;;;;;14.91;100.00;98564.81;4821774;29;20603;-80
2023/06/24 00:40:42;;;;;;;0.40;0.40;;;;;;;14.98;100.00;98566.41;4822323;29;20064;-80
2023/06/24 00:43:09;;;;;;;0.40;0.40;;;;;;;15.05;100.00;98566.88;4822698;29;20417;-80
2023/06/24 00:45:36;;;;;;;0.40;0.40;;;;;;;15.09;100.00;98562.50;4806167;29;20055;-80
2023/06/24 00:48:04;;;;;;;0.40;0.40;;;;;;;15.08;100.00;98556.25;4822723;29;20130;-80
2023/06/24 00:50:32;;;;;;;0.40;0.40;;;;;;;15.08;100.00;98550.00;4806119;29;20140;-80
2023/06/24 00:52:59;;;;;;;0.30;0.30;;;;;;;15.18;100.00;98556.16;4822395;29;20106;-80
2023/06/24 00:55:28;;;;;;;0.40;0.40;;;;;;;15.15;100.00;98558.66;4831371;29;20140;-80
2023/06/24 00:57:56;;;;;;;0.40;0.40;;;;;;;15.18;100.00;98552.63;4840659;29;20049;-80
2023/06/24 01:00:23;;;;;;;0.40;0.40;;;;;;;15.24;100.00;98562.34;4824493;29;20058;-80
2023/06/24 01:02:50;;;;;;;0.40;0.40;;;;;;;15.25;100.00;98561.28;4840390;29;20058;-80
2023/06/24 01:05:17;;;;;;;0.38;0.38;;;;;;;15.30;100.00;98552.25;4840728;29;20053;-80
2023/06/24 01:07:54;;;;;;;0.40;0.40;;;;;;;15.28;100.00;98551.75;4853101;29;20061;-80
2023/06/24 01:10:23;;;;;;;0.40;0.40;;;;;;;15.31;100.00;98553.88;4828516;29;20050;-80
2023/06/24 01:12:50;;;;;;;0.40;0.40;;;;;;;15.34;100.00;98553.28;4857704;29;20061;-80
2023/06/24 01:15:20;;;;;;;0.40;0.40;;;;;;;15.35;100.00;98554.94;4842254;29;20083;-80
2023/06/24 01:18:06;;;;;;;0.40;0.40;;;;;;;15.36;100.00;98548.38;4858565;29;20511;-80
2023/06/24 01:20:46;;;;;;;0.40;0.40;;;;;;;15.36;100.00;98556.53;4841892;29;20053;-81
2023/06/24 01:23:22;;;;;;;0.40;0.40;;;;;;;15.36;100.00;98556.53;4827634;29;20523;-81
2023/06/24 01:25:55;;;;;;;0.40;0.40;;;;;;;15.37;100.00;98552.75;4841671;29;20584;-81
2023/06/24 01:28:48;;;;;;;0.40;0.40;;;;;;;15.35;100.00;98549.50;4842434;29;20076;-80
2023/06/24 01:31:34;;;;;;;0.40;0.40;;;;;;;15.36;99.94;98564.69;4842425;29;20049;-80
2023/06/24 01:34:06;;;;;;;0.40;0.40;;;;;;;15.34;99.74;98559.56;4858100;29;20057;-81
2023/06/24 01:36:35;;;;;;;0.40;0.40;;;;;;;15.38;99.78;98557.06;4849889;29;20569;-80
2023/06/24 01:39:04;;;;;;;0.40;0.40;;;;;;;15.39;99.71;98555.97;4823750;29;20070;-80
2023/06/24 01:41:41;;;;;;;0.40;0.40;;;;;;;15.50;99.67;98554.78;4839872;29;20073;-80
2023/06/24 01:44:14;;;;;;;0.40;0.40;;;;;;;15.57;99.14;98551.69;4823680;29;20053;-80
2023/06/24 01:46:44;;;;;;;0.40;0.40;;;;;;;15.63;98.52;98555.19;4839772;29;20046;-81
2023/06/24 01:49:13;;;;;;;0.40;0.40;;;;;;;15.66;98.42;98549.97;4808486;29;20068;-80
2023/06/24 01:51:43;;;;;;;0.40;0.40;;;;;;;15.70;97.51;98552.94;4808223;29;20145;-80
2023/06/24 01:54:16;;;;;;;0.40;0.40;;;;;;;15.73;97.28;98555.94;4824092;29;20520;-81
2023/06/24 01:56:47;;;;;;;0.40;0.40;;;;;;;15.82;96.51;98556.09;4808318;29;20501;-80
2023/06/24 01:59:17;;;;;;;0.40;0.40;;;;;;;15.83;96.18;98552.28;4808578;29;20085;-80
2023/06/24 02:01:44;;;;;;;0.35;0.35;;;;;;;15.87;95.76;98550.59;4839541;29;20485;-80
2023/06/24 02:04:11;;;;;;;0.40;0.40;;;;;;;15.87;95.24;98549.78;4823513;29;20158;-80
2023/06/24 02:06:39;;;;;;;0.40;0.40;;;;;;;15.90;94.80;98557.34;4807741;29;20077;-80
2023/06/24 02:09:07;;;;;;;0.40;0.40;;;;;;;15.88;94.67;98556.84;4839593;29;20431;-80
2023/06/24 02:11:35;;;;;;;0.40;0.40;;;;;;;15.92;94.50;98557.88;4822959;29;20140;-80
2023/06/24 02:14:04;;;;;;;0.40;0.40;;;;;;;15.95;93.97;98562.75;4807527;29;20049;-80
2023/06/24 02:16:32;;;;;;;0.38;0.38;;;;;;;16.00;93.52;98557.22;4839156;29;20206;-80
2023/06/24 02:19:01;;;;;;;0.40;0.40;;;;;;;16.04;92.99;98563.72;4822995;29;20521;-80
2023/06/24 02:21:30;;;;;;;0.40;0.40;;;;;;;16.10;92.39;98561.75;4794142;29;20058;-81
2023/06/24 02:23:58;;;;;;;0.40;0.40;;;;;;;16.13;91.89;98563.88;4807647;29;20066;-81
2023/06/24 02:26:25;;;;;;;0.40;0.40;;;;;;;16.21;91.61;98561.34;4823321;29;20081;-81
2023/06/24 02:28:53;;;;;;;0.40;0.40;;;;;;;16.27;90.68;98569.44;4823089;29;20122;-81
2023/06/24 02:31:20;;;;;;;0.40;0.40;;;;;;;16.24;89.50;98563.47;4823146;29;20078;-81
2023/06/24 02:33:47;;;;;;;0.30;0.30;;;;;;;16.15;88.90;98570.66;4839100;29;20060;-81
2023/06/24 02:36:14;;;;;;;0.40;0.40;;;;;;;16.20;88.26;98569.78;4839120;29;20142;-81
2023/06/24 02:38:42;;;;;;;0.40;0.40;;;;;;;16.16;87.23;98569.56;4839210;29;20050;-81
2023/06/24 02:41:09;;;;;;;0.30;0.30;;;;;;;16.13;87.23;98564.72;4839306;29;20529;-80
2023/06/24 02:43:37;;;;;;;0.40;0.40;;;;;;;16.17;87.02;98575.81;4839182;29;20061;-80
2023/06/24 02:46:05;;;;;;;0.40;0.40;;;;;;;16.17;86.80;98570.38;4825854;29;20398;-80
2023/06/24 02:48:35;;;;;;;0.40;0.40;;;;;;;16.17;86.50;98570.38;4842789;29;20590;-80
2023/06/24 02:51:02;;;;;;;0.40;0.40;;;;;;;16.18;86.51;98561.09;4811422;29;20097;-80
2023/06/24 02:53:30;;;;;;;0.40;0.40;;;;;;;16.13;86.65;98563.88;4826292;29;20065;-80
2023/06/24 02:55:58;;;;;;;0.40;0.40;;;;;;;16.17;86.27;98573.91;4825963;29;20495;-81
2023/06/24 02:58:31;;;;;;;0.40;0.40;;;;;;;16.24;86.14;98570.81;4811262;29;20580;-81
2023/06/24 03:01:06;;;;;;;0.40;0.40;;;;;;;16.38;85.67;98574.47;4825912;29;20054;-81
2023/06/24 03:03:54;;;;;;;0.40;0.40;;;;;;;16.42;84.29;98571.94;4829208;29;20140;-81
2023/06/24 03:06:23;;;;;;;0.30;0.30;;;;;;;16.28;83.48;98571.88;4842518;29;20524;-81
2023/06/24 03:08:53;;;;;;;0.40;0.40;;;;;;;16.09;83.37;98579.19;4825696;29;20137;-81
2023/06/24 03:11:22;;;;;;;0.40;0.40;;;;;;;16.04;83.01;98572.69;4825960;29;20054;-81
2023/06/24 03:13:49;;;;;;;0.45;0.45;;;;;;;15.86;82.58;98565.31;4842172;29;20105;-81
2023/06/24 03:16:22;;;;;;;0.40;0.40;;;;;;;15.79;82.40;98581.97;4811995;29;20053;-81
2023/06/24 03:19:00;;;;;;;0.40;0.40;;;;;;;15.82;82.54;98580.56;4825438;29;20078;-81
2023/06/24 03:21:28;;;;;;;0.40;0.40;;;;;;;15.78;82.19;98574.91;4825726;29;20152;-81
2023/06/24 03:24:04;;;;;;;0.40;0.40;;;;;;;15.77;82.41;98583.34;4825638;29;20578;-81
2023/06/24 03:26:33;;;;;;;0.40;0.40;;;;;;;15.84;82.39;98578.38;4842135;29;20058;-81
2023/06/24 03:29:00;;;;;;;0.40;0.40;;;;;;;15.82;82.08;98578.69;4810648;29;20081;-80
2023/06/24 03:31:29;;;;;;;0.40;0.40;;;;;;;15.73;81.98;98568.72;4825572;29;20110;-80
2023/06/24 03:33:56;;;;;;;0.40;0.40;;;;;;;15.76;81.97;98581.75;4825635;29;20583;-80
2023/06/24 03:36:25;;;;;;;0.40;0.40;;;;;;;15.76;81.99;98584.47;4841813;29;20140;-80
2023/06/24 03:38:52;;;;;;;0.40;0.40;;;;;;;15.87;81.85;98582.44;4841721;29;20049;-81
2023/06/24 03:41:19;;;;;;;0.40;0.40;;;;;;;15.91;81.37;98584.28;4825334;29;20062;-80
2023/06/24 03:43:48;;;;;;;0.40;0.40;;;;;;;16.10;81.06;98587.03;4825147;29;20586;-80
2023/06/24 03:46:15;;;;;;;0.40;0.40;;;;;;;16.10;80.33;98588.97;4825640;29;20601;-81
2023/06/24 03:48:43;;;;;;;0.40;0.40;;;;;;;16.10;79.98;98597.94;4841669;29;20065;-81
2023/06/24 03:51:11;;;;;;;0.45;0.45;;;;;;;16.43;79.62;98593.47;4825327;29;20050;-80
2023/06/24 03:53:39;;;;;;;0.40;0.40;;;;;;;16.60;78.24;98583.97;4825080;29;20102;-81
2023/06/24 03:56:06;;;;;;;0.40;0.40;;;;;;;16.61;77.39;98591.84;4841169;29;20122;-81
2023/06/24 03:58:33;;;;;;;0.50;0.50;;;;;;;16.84;77.15;98586.66;4841902;29;20058;-81
2023/06/24 04:01:01;;;;;;;0.50;0.50;;;;;;;16.97;76.55;98585.91;4824939;29;20065;-81
2023/06/24 04:03:29;;;;;;;0.40;0.40;;;;;;;17.12;76.21;98584.84;4810240;29;20053;-80
2023/06/24 04:05:56;;;;;;;0.40;0.40;;;;;;;17.12;75.32;98582.13;4841454;29;20081;-81
2023/06/24 04:08:29;;;;;;;0.40;0.40;;;;;;;17.01;75.25;98586.91;4841457;29;20054;-81
2023/06/24 04:10:58;;;;;;;0.40;0.40;;;;;;;16.94;75.59;98583.75;4841180;29;20061;-81
2023/06/24 04:13:26;;;;;;;0.40;0.40;;;;;;;17.00;75.71;98598.91;4809773;29;20053;-81
2023/06/24 04:15:53;;;;;;;0.40;0.40;;;;;;;16.98;75.56;98579.31;4824719;29;20050;-81
2023/06/24 04:18:20;;;;;;;0.40;0.40;;;;;;;16.98;74.99;98589.41;4824954;29;20066;-81
2023/06/24 04:20:47;;;;;;;0.38;0.38;;;;;;;16.82;75.04;98592.38;4824631;29;20502;-81
2023/06/24 04:23:15;;;;;;;0.40;0.40;;;;;;;16.73;75.87;98599.56;4824608;29;20054;-81
2023/06/24 04:25:42;;;;;;;0.40;0.40;;;;;;;16.82;76.29;98602.47;4809659;29;20083;-81
2023/06/24 04:28:09;;;;;;;0.40;0.40;;;;;;;16.85;75.55;98607.34;4824668;29;20084;-80
2023/06/24 04:30:40;;;;;;;0.40;0.40;;;;;;;16.69;75.76;98601.28;4840926;29;20046;-81
2023/06/24 04:33:08;;;;;;;0.40;0.40;;;;;;;16.64;76.06;98613.06;4825398;29;20175;-81
2023/06/24 04:35:35;;;;;;;0.40;0.40;;;;;;;16.61;75.94;98596.47;4825024;29;20046;-80
2023/06/24 04:38:03;;;;;;;0.40;0.40;;;;;;;16.71;75.98;98606.41;4824571;29;20049;-80
2023/06/24 04:40:31;;;;;;;0.40;0.40;;;;;;;16.65;75.99;98609.22;4840737;29;20053;-81
2023/06/24 04:42:58;;;;;;;0.40;0.40;;;;;;;16.68;75.88;98618.72;4843711;29;20058;-80
2023/06/24 04:45:25;;;;;;;0.40;0.40;;;;;;;16.67;76.11;98617.09;4845772;29;20527;-81
2023/06/24 04:47:52;;;;;;;0.40;0.40;;;;;;;16.73;76.21;98623.28;4824458;29;20053;-81
2023/06/24 04:50:19;;;;;;;0.40;0.40;;;;;;;16.65;75.59;98627.47;4840482;29;20058;-80
2023/06/24 04:52:53;;;;;;;0.35;0.35;;;;;;;16.47;76.59;98627.16;4832715;29;20092;-80
2023/06/24 04:55:22;;;;;;;0.40;0.40;;;;;;;16.33;77.13;98639.88;4833243;29;20430;-80
2023/06/24 04:57:53;;;;;;;0.40;0.40;;;;;;;16.33;77.34;98625.44;4819112;29;20050;-81
2023/06/24 05:00:22;;;;;;;0.40;0.40;;;;;;;16.35;77.58;98636.84;4802663;29;20050;-81
2023/06/24 05:02:50;;;;;;;0.50;0.50;;;;;;;16.51;76.94;98637.47;4818989;29;20050;-81
2023/06/24 05:05:17;;;;;;;0.43;0.43;;;;;;;16.66;76.41;98635.38;4803406;29;20058;-80
2023/06/24 05:07:45;;;;;;;0.40;0.40;;;;;;;16.70;76.34;98643.75;4817655;29;20066;-81
2023/06/24 05:10:12;;;;;;;0.40;0.40;;;;;;;16.65;76.07;98633.72;4837765;29;20060;-81
2023/06/24 05:12:39;;;;;;;0.50;0.50;;;;;;;16.62;76.56;98626.16;4844514;29;20081;-81
2023/06/24 05:15:07;;;;;;;0.40;0.40;;;;;;;16.77;76.64;98637.94;4845946;29;20442;-80
2023/06/24 05:17:34;;;;;;;0.40;0.40;;;;;;;16.79;76.58;98642.03;4824249;29;20060;-80
2023/06/24 05:20:02;;;;;;;0.40;0.40;;;;;;;16.74;76.59;98642.06;4841146;29;20144;-80
2023/06/24 05:22:29;;;;;;;0.40;0.40;;;;;;;16.59;76.73;98642.28;4837314;29;20144;-79
2023/06/24 05:24:57;;;;;;;0.40;0.40;;;;;;;16.35;77.34;98647.75;4836867;29;20053;-80
2023/06/24 05:27:24;;;;;;;0.30;0.30;;;;;;;16.19;77.57;98644.41;4836859;29;20149;-80
2023/06/24 05:29:51;;;;;;;0.30;0.30;;;;;;;16.07;78.00;98638.53;4836439;29;20056;-80
2023/06/24 05:32:19;;;;;;;0.40;0.40;;;;;;;15.94;78.27;98643.56;4829170;29;20062;-80
2023/06/24 05:34:47;;;;;;;0.40;0.40;;;;;;;16.01;78.50;98646.78;4827602;29;20078;-79
2023/06/24 05:37:14;;;;;;;0.40;0.40;;;;;;;16.18;77.95;98650.94;4500133;29;10000289;-80
2023/06/24 05:39:41;;;;;;;0.38;0.38;;;;;;;16.30;77.64;98635.00;4828485;29;20089;-79
2023/06/24 05:42:08;;;;;;;0.40;0.40;;;;;;;16.34;77.05;98654.31;4835774;29;20079;-80
2023/06/24 05:44:35;;;;;;;0.40;0.40;;;;;;;16.39;76.98;98652.31;4836001;29;20061;-79
2023/06/24 05:47:03;;;;;;;0.40;0.40;;;;;;;16.45;76.43;98647.63;4835638;29;20052;-78
2023/06/24 05:49:30;;;;;;;0.45;0.45;;;;;;;16.55;76.20;98652.94;4835905;29;20516;-79
2023/06/24 05:51:58;;;;;;;0.40;0.40;;;;;;;16.74;75.49;98654.91;4836292;29;20525;-83
2023/06/24 05:54:25;;;;;;;0.40;0.40;;;;;;;16.67;74.77;98649.78;4819898;29;20054;-80
2023/06/24 05:56:53;;;;;;;0.40;0.40;;;;;;;16.59;74.78;98650.44;4836393;29;20663;-79
2023/06/24 05:59:19;;;;;;;0.40;0.40;;;;;;;16.70;74.94;98654.66;4833643;29;20054;-80
2023/06/24 06:01:47;;;;;;;0.40;0.40;;;;;;;16.60;74.53;98665.69;4835413;29;20058;-81
2023/06/24 06:04:14;;;;;;;0.40;0.40;;;;;;;16.55;75.13;98657.56;4836209;29;20081;-79
2023/06/24 06:06:41;;;;;;;0.40;0.40;;;;;;;16.52;75.51;98661.69;4836537;29;20470;-77
2023/06/24 06:09:08;;;;;;;0.40;0.40;;;;;;;16.55;74.95;98668.47;4835824;29;20077;-78
2023/06/24 06:11:35;;;;;;;0.43;0.43;;;;;;;16.74;74.29;98655.69;4835943;29;20252;-81
2023/06/24 06:14:02;;;;;;;0.50;0.50;;;;;;;17.13;72.73;98673.69;4836174;29;20402;-79
2023/06/24 06:16:29;;;;;;;0.43;0.43;;;;;;;17.55;71.39;98661.03;4778420;30;20055;-81
2023/06/24 06:18:56;;;;;;;0.40;0.40;;;;;;;17.62;69.73;98664.16;4761829;30;20058;-81
2023/06/24 06:21:24;;;;;;;0.50;0.50;;;;;;;17.54;70.04;98662.13;4783025;30;20070;-78
2023/06/24 06:23:51;;;;;;;0.50;0.50;;;;;;;17.70;69.32;98660.78;4782161;29;20089;-79
2023/06/24 06:26:18;;;;;;;0.50;0.50;;;;;;;17.69;69.29;98664.59;4781862;30;20067;-78
2023/06/24 06:28:47;;;;;;;0.50;0.50;;;;;;;17.89;68.75;98663.47;4775639;30;20051;-78
2023/06/24 06:31:15;;;;;;;0.50;0.50;;;;;;;17.96;68.04;98658.44;4776821;29;20078;-77
2023/06/24 06:33:43;;;;;;;0.50;0.50;;;;;;;17.93;68.71;98663.69;4777289;30;20694;-80
2023/06/24 06:36:10;;;;;;;0.40;0.40;;;;;;;18.07;68.28;98660.97;4780002;30;20059;-79
2023/06/24 06:38:37;;;;;;;0.40;0.40;;;;;;;17.93;68.48;98671.88;4781602;29;20057;-81
2023/06/24 06:41:04;;;;;;;0.40;0.40;;;;;;;17.87;69.13;98651.22;4767296;30;20055;-81
2023/06/24 06:43:33;;;;;;;0.40;0.40;;;;;;;17.70;69.22;98658.06;4776133;30;20083;-81
2023/06/24 06:46:00;;;;;;;0.38;0.38;;;;;;;17.49;70.01;98660.31;4782766;30;20127;-81
2023/06/24 06:48:27;;;;;;;0.40;0.40;;;;;;;17.52;70.08;98659.72;4830060;29;20080;-79
2023/06/24 06:50:54;;;;;;;0.35;0.35;;;;;;;17.27;70.48;98652.75;4838675;29;20103;-80
2023/06/24 06:53:21;;;;;;;0.40;0.40;;;;;;;17.17;70.92;98663.84;4837977;29;20054;-80
2023/06/24 06:55:48;;;;;;;0.40;0.40;;;;;;;17.13;71.63;98676.44;4837256;29;20160;-81
2023/06/24 06:58:15;;;;;;;0.32;0.32;;;;;;;17.14;71.66;98675.31;4837510;29;20058;-80
2023/06/24 07:00:42;;;;;;;0.40;0.40;;;;;;;16.77;72.58;98679.63;4839245;29;20061;-80
2023/06/24 07:03:09;;;;;;;0.30;0.30;;;;;;;16.42;74.03;98675.44;4835874;29;20118;-80
2023/06/24 07:05:36;;;;;;;0.40;0.40;;;;;;;16.47;74.71;98683.56;4838578;29;20053;-80
2023/06/24 07:08:05;;;;;;;0.40;0.40;;;;;;;16.41;74.91;98674.63;4834994;29;20045;-80
2023/06/24 07:10:32;;;;;;;0.40;0.40;;;;;;;16.32;75.71;98673.66;4818322;29;20106;-82
2023/06/24 07:13:00;;;;;;;0.40;0.40;;;;;;;16.49;75.46;98677.81;4836978;29;20129;-81
2023/06/24 07:15:28;;;;;;;0.40;0.40;;;;;;;16.58;75.03;98685.03;4835713;29;20566;-81
2023/06/24 07:17:55;;;;;;;0.40;0.40;;;;;;;16.70;74.99;98676.44;4833974;29;20050;-82
2023/06/24 07:20:22;;;;;;;0.30;0.30;;;;;;;16.83;74.41;98677.66;4821290;29;20050;-81
2023/06/24 07:22:49;;;;;;;0.40;0.40;;;;;;;16.71;74.15;98680.81;4838951;29;20104;-82
2023/06/24 07:25:16;;;;;;;0.40;0.40;;;;;;;16.52;74.88;98685.41;4837688;29;20474;-80
2023/06/24 07:27:43;;;;;;;0.40;0.40;;;;;;;16.37;75.49;98679.03;4837153;29;20074;-82
2023/06/24 07:30:10;;;;;;;0.40;0.40;;;;;;;16.27;75.93;98686.50;4818510;29;20118;-80
2023/06/24 07:32:38;;;;;;;0.40;0.40;;;;;;;16.24;76.67;98679.72;4837965;29;20061;-80
2023/06/24 07:35:07;;;;;;;0.40;0.40;;;;;;;16.25;76.57;98687.63;4821047;29;20080;-81
2023/06/24 07:37:34;;;;;;;0.40;0.40;;;;;;;16.24;76.59;98685.19;4838537;29;20061;-79
2023/06/24 07:40:03;;;;;;;0.40;0.40;;;;;;;16.55;76.26;98684.81;4831006;29;20078;-81
2023/06/24 07:42:30;;;;;;;0.40;0.40;;;;;;;16.65;75.39;98687.41;4837688;29;20394;-80
2023/06/24 07:44:57;;;;;;;0.40;0.40;;;;;;;16.72;75.47;98700.69;4837286;29;20060;-80
2023/06/24 07:47:25;;;;;;;0.40;0.40;;;;;;;16.69;75.10;98693.91;4821261;29;20058;-80
2023/06/24 07:49:52;;;;;;;0.40;0.40;;;;;;;16.76;75.15;98707.16;4835234;29;20050;-79
2023/06/24 07:52:19;;;;;;;0.40;0.40;;;;;;;16.93;74.67;98712.97;4814761;29;20048;-80
2023/06/24 07:54:47;;;;;;;0.40;0.40;;;;;;;17.04;74.44;98706.28;4818661;29;20073;-82
2023/06/24 07:57:14;;;;;;;0.40;0.40;;;;;;;17.03;73.88;98706.56;4837751;29;20436;-82
2023/06/24 07:59:44;;;;;;;0.40;0.40;;;;;;;16.91;74.03;98715.16;4835417;29;20488;-81
2023/06/24 08:02:14;;;;;;;0.40;0.40;;;;;;;16.85;74.26;98722.59;4819947;29;20204;-80
2023/06/24 08:04:41;;;;;;;0.40;0.40;;;;;;;16.93;73.93;98725.78;4821468;29;20113;-81
2023/06/24 08:07:13;;;;;;;0.40;0.40;;;;;;;17.01;73.66;98706.03;4837487;29;20078;-82
2023/06/24 08:09:43;;;;;;;0.40;0.40;;;;;;;17.17;72.94;98712.91;4824292;29;20081;-83
2023/06/24 08:12:10;;;;;;;0.50;0.50;;;;;;;17.31;72.05;98719.22;4839440;29;20054;-78
2023/06/24 08:14:37;;;;;;;0.40;0.40;;;;;;;17.26;72.00;98718.50;4841064;29;20050;-81
2023/06/24 08:17:07;;;;;;;0.40;0.40;;;;;;;17.28;71.79;98721.75;4841803;29;20054;-81
2023/06/24 08:19:34;;;;;;;0.40;0.40;;;;;;;17.20;71.86;98717.78;4845484;29;20050;-81
2023/06/24 08:22:02;;;;;;;0.30;0.30;;;;;;;17.36;71.79;98725.72;4839658;29;20144;-81
2023/06/24 08:24:29;;;;;;;0.40;0.40;;;;;;;17.31;71.32;98730.13;4837078;29;20157;-80
2023/06/24 08:26:56;;;;;;;0.40;0.40;;;;;;;17.18;71.88;98733.59;4836958;29;20057;-80
2023/06/24 08:29:23;;;;;;;0.38;0.38;;;;;;;17.13;72.09;98736.41;4841346;29;20114;-83
2023/06/24 08:31:50;;;;;;;0.40;0.40;;;;;;;17.29;72.04;98732.38;4833467;29;20523;-81
2023/06/24 08:34:18;;;;;;;0.40;0.40;;;;;;;17.35;71.88;98735.03;4820048;29;20062;-82
2023/06/24 08:36:45;;;;;;;0.40;0.40;;;;;;;17.36;71.58;98731.97;4842363;29;20053;-81
2023/06/24 08:39:14;;;;;;;0.40;0.40;;;;;;;17.43;71.46;98737.88;4844755;29;20738;-82
2023/06/24 08:41:41;;;;;;;0.40;0.40;;;;;;;17.36;71.58;98725.72;4844359;29;20155;-82
2023/06/24 08:44:10;;;;;;;0.40;0.40;;;;;;;17.45;71.95;98738.41;4840937;29;20054;-82
2023/06/24 08:46:37;;;;;;;0.40;0.40;;;;;;;17.43;71.67;98737.06;4840715;29;20062;-82
2023/06/24 08:49:22;;;;;;;0.30;0.30;;;;;;;17.46;71.87;98736.47;4840912;29;20054;-81
2023/06/24 08:52:06;;;;;;;0.40;0.40;;;;;;;17.32;71.69;98742.69;4840652;29;20050;-81
2023/06/24 08:54:36;;;;;;;0.40;0.40;;;;;;;17.04;72.59;98746.34;4840834;29;20070;-82
2023/06/24 08:57:05;;;;;;;0.40;0.40;;;;;;;16.91;73.28;98753.31;4824944;29;20050;-82
2023/06/24 08:59:33;;;;;;;0.30;0.30;;;;;;;16.88;73.73;98760.16;4825113;29;20050;-82
2023/06/24 09:02:01;;;;;;;0.40;0.40;;;;;;;16.81;73.71;98759.72;4840496;29;20149;-82
2023/06/24 09:04:28;;;;;;;0.40;0.40;;;;;;;16.60;74.45;98750.94;4824598;29;20053;-81
2023/06/24 09:06:56;;;;;;;0.40;0.40;;;;;;;16.42;75.31;98744.34;4824078;29;20078;-81
2023/06/24 09:09:23;;;;;;;0.50;0.50;;;;;;;16.40;76.09;98749.25;4824434;29;20054;-81
2023/06/24 09:11:55;;;;;;;0.40;0.40;;;;;;;16.52;75.79;98756.22;4840181;29;20050;-81
2023/06/24 09:14:24;;;;;;;0.40;0.40;;;;;;;16.51;76.10;98762.75;4843156;29;20066;-82
2023/06/24 09:17:00;;;;;;;0.40;0.40;;;;;;;16.59;76.17;98751.25;4843598;29;20517;-82
2023/06/24 09:19:29;;;;;;;0.40;0.40;;;;;;;16.71;75.81;98757.09;4839872;29;20593;-81
2023/06/24 09:22:01;;;;;;;0.40;0.40;;;;;;;16.76;75.70;98759.75;4839574;29;20157;-81
2023/06/24 09:24:36;;;;;;;0.50;0.50;;;;;;;16.83;75.83;98760.22;4823848;29;20060;-81
2023/06/24 09:27:04;;;;;;;0.50;0.50;;;;;;;16.95;75.36;98756.28;4823976;29;20152;-82
2023/06/24 09:29:35;;;;;;;0.40;0.40;;;;;;;17.32;74.16;98775.41;4823665;29;20149;-82
2023/06/24 09:32:06;;;;;;;0.40;0.40;;;;;;;17.29;73.73;98775.16;4832659;29;20060;-82
2023/06/24 09:34:34;;;;;;;0.50;0.50;;;;;;;17.20;74.14;98777.75;4802267;29;20849;-82
2023/06/24 09:37:01;;;;;;;0.40;0.40;;;;;;;16.96;75.11;98777.78;4839795;29;20068;-81
2023/06/24 09:39:35;;;;;;;0.40;0.40;;;;;;;17.06;75.21;98785.03;4840083;29;20079;-81
2023/06/24 09:42:04;;;;;;;0.40;0.40;;;;;;;17.36;74.46;98777.53;4839638;29;20410;-81
2023/06/24 09:44:32;;;;;;;0.40;0.40;;;;;;;17.41;74.00;98797.38;4840023;29;20074;-81
2023/06/24 09:46:59;;;;;;;0.40;0.40;;;;;;;17.22;74.21;98794.66;4839816;29;20084;-82
2023/06/24 09:49:26;;;;;;;0.30;0.30;;;;;;;17.02;74.99;98800.38;4840795;29;20061;-81
2023/06/24 09:51:57;;;;;;;0.40;0.40;;;;;;;16.87;74.98;98794.00;4839637;29;20136;-81
2023/06/24 09:54:29;;;;;;;0.40;0.40;;;;;;;16.91;75.13;98807.84;4839925;29;20098;-82
2023/06/24 09:57:04;;;;;;;0.40;0.40;;;;;;;16.82;75.56;98810.41;4841022;29;20440;-81
2023/06/24 09:59:34;;;;;;;0.40;0.40;;;;;;;16.78;75.97;98805.81;4840617;29;20056;-81
2023/06/24 10:02:03;;;;;;;0.40;0.40;;;;;;;16.73;76.37;98812.09;4839858;29;20064;-81
2023/06/24 10:04:31;;;;;;;0.40;0.40;;;;;;;16.73;76.71;98809.38;4823700;29;20145;-81
2023/06/24 10:07:02;;;;;;;0.40;0.40;;;;;;;16.60;76.65;98801.91;4823630;29;20134;-81
2023/06/24 10:09:29;;;;;;;0.40;0.40;;;;;;;16.73;77.27;98809.38;4839715;29;20054;-81
2023/06/24 10:11:56;;;;;;;0.40;0.40;;;;;;;16.80;77.14;98809.88;4839450;29;20046;-81
2023/06/24 10:14:24;;;;;;;0.40;0.40;;;;;;;16.80;76.73;98823.50;4823928;29;20054;-81
2023/06/24 10:16:51;;;;;;;0.38;0.38;;;;;;;16.68;76.85;98817.59;4808500;29;20382;-81
2023/06/24 10:19:24;;;;;;;0.40;0.40;;;;;;;16.56;77.52;98828.91;4839726;29;20157;-81
2023/06/24 10:21:51;;;;;;;0.35;0.35;;;;;;;16.61;77.47;98825.31;4840204;29;20157;-82
2023/06/24 10:24:35;;;;;;;0.40;0.40;;;;;;;16.68;77.81;98826.63;4840454;29;20050;-81
2023/06/24 10:27:13;;;;;;;0.40;0.40;;;;;;;16.76;77.63;98833.34;4840527;29;20110;-81
2023/06/24 10:29:44;;;;;;;0.40;0.40;;;;;;;16.69;77.62;98835.59;4836444;29;20514;-82
2023/06/24 10:32:12;;;;;;;0.32;0.32;;;;;;;16.78;77.87;98846.69;4851532;29;20169;-82
2023/06/24 10:34:42;;;;;;;0.40;0.40;;;;;;;16.81;77.10;98827.88;4853142;29;20080;-82
2023/06/24 10:37:19;;;;;;;0.50;0.50;;;;;;;16.99;77.12;98842.66;4838730;29;20069;-82
2023/06/24 10:40:07;;;;;;;0.50;0.50;;;;;;;17.43;75.51;98840.72;4827496;29;20050;-82
2023/06/24 10:42:42;;;;;;;0.40;0.40;;;;;;;17.37;74.21;98836.44;4822349;29;20149;-82
2023/06/24 10:45:12;;;;;;;0.40;0.40;;;;;;;17.41;74.33;98841.00;4822019;29;20050;-82
2023/06/24 10:47:56;;;;;;;0.40;0.40;;;;;;;17.55;74.23;98847.38;4822146;29;20050;-82
2023/06/24 10:50:23;;;;;;;0.50;0.50;;;;;;;17.79;73.52;98848.41;4805214;29;20494;-82
2023/06/24 10:52:55;;;;;;;0.40;0.40;;;;;;;18.08;72.30;98853.72;4821480;29;20054;-82
2023/06/24 10:55:27;;;;;;;0.40;0.40;;;;;;;18.22;71.27;98851.84;4822105;29;20058;-82
2023/06/24 10:57:54;;;;;;;0.40;0.40;;;;;;;18.25;70.40;98850.44;4806030;29;20463;-82
2023/06/24 11:00:22;;;;;;;0.40;0.40;;;;;;;18.09;70.22;98860.81;4823039;29;20472;-83
2023/06/24 11:02:49;;;;;;;0.40;0.40;;;;;;;17.83;71.16;98860.41;4823420;29;20514;-83
2023/06/24 11:05:17;;;;;;;0.40;0.40;;;;;;;17.65;72.16;98843.69;4822936;29;20145;-83
2023/06/24 11:07:43;;;;;;;0.40;0.40;;;;;;;17.76;71.77;98850.63;4840335;29;20074;-82
2023/06/24 11:10:12;;;;;;;0.40;0.40;;;;;;;18.00;71.30;98862.59;4826332;29;20544;-82
2023/06/24 11:12:41;;;;;;;0.40;0.40;;;;;;;18.17;70.25;98865.59;4842682;29;20523;-82
2023/06/24 11:15:11;;;;;;;0.32;0.32;;;;;;;18.13;70.36;98867.31;4842743;29;20507;-82
2023/06/24 11:17:39;;;;;;;0.40;0.40;;;;;;;17.90;70.48;98866.28;4811379;29;20058;-83
2023/06/24 11:20:11;;;;;;;0.40;0.40;;;;;;;17.69;71.14;98855.63;4842874;29;20084;-82
2023/06/24 11:22:43;;;;;;;0.35;0.35;;;;;;;17.66;71.60;98867.13;4825898;29;20458;-82
2023/06/24 11:25:29;;;;;;;0.40;0.40;;;;;;;17.67;72.12;98871.50;4842350;29;20065;-82
2023/06/24 11:27:57;;;;;;;0.40;0.40;;;;;;;17.55;71.77;98854.75;4842421;29;20064;-82
2023/06/24 11:30:24;;;;;;;0.40;0.40;;;;;;;17.64;72.13;98871.28;4842849;29;20086;-82
2023/06/24 11:32:51;;;;;;;0.40;0.40;;;;;;;17.85;71.79;98880.84;4842219;29;20402;-82
2023/06/24 11:35:18;;;;;;;0.40;0.40;;;;;;;18.23;70.66;98864.41;4843047;29;20098;-82
2023/06/24 11:37:47;;;;;;;0.40;0.40;;;;;;;18.58;69.39;98876.66;4808427;29;20054;-82
2023/06/24 11:40:19;;;;;;;0.40;0.40;;;;;;;18.84;68.55;98874.28;4824485;29;20056;-82